Airway Heights, Washington
Current Conditions -  °F | °C
As of 10:53 PM on Thursday 27 Nov 2014 (Local Time) from KGEG Reporting Station
Few Clouds Few Clouds  
Wind Chill:   Ceiling: Unl
Heat Index:   Visibility: 10mi
Dew Point:   Wind: 18mph
Humidity: 83%   Direction: 210°SSW
Pressure: 29.71"   Gusts: NA
Location:  47.64°N, 117.59°W
Report Text: KGEG 280653Z 21016KT 10SM FEW200 08/06 A2971 RMK AO2 SLP060 T00830056
Loading
Personal Weather Stations






























Interactive Weather Map New forecast layout! Learn more

10-Day Weather Forecast

Advertisements
Track Severe Weather on mobile